Time;durP1;ratioP1;P1;durP2;ratioP2;P2;SDS_P1;SDS_P2;PMS_P1;PMS_P2;Temp;Humidity;BMP_temperature;BMP_pressure;BME280_temperature;BME280_humidity;BME280_pressure;Samples;Min_cycle;Max_cycle;Signal;HPM_P1;HPM_P2
2023/05/30 00:00:05;;;;;;;8.68;3.30;;;;;;;9.67;54.46;101930.88;849151;23;1034;-79
2023/05/30 00:00:28;;;;;;;7.97;3.20;;;;;;;9.69;54.43;101931.84;845143;23;783;-79
2023/05/30 00:00:49;;;;;;;7.95;3.50;;;;;;;9.68;54.84;101937.88;842241;23;974;-78
2023/05/30 00:01:09;;;;;;;7.45;3.25;;;;;;;9.55;54.89;101920.72;843731;23;1347;-78
2023/05/30 00:01:31;;;;;;;9.32;3.30;;;;;;;9.50;54.69;101919.59;842556;23;865;-79
2023/05/30 00:01:52;;;;;;;9.00;3.17;;;;;;;9.54;55.12;101924.16;843471;23;1069;-78
2023/05/30 00:02:13;;;;;;;8.50;3.10;;;;;;;9.62;54.79;101936.66;839769;23;1165;-78
2023/05/30 00:02:33;;;;;;;9.37;3.10;;;;;;;9.67;54.78;101943.00;839667;23;1155;-78
2023/05/30 00:02:54;;;;;;;10.48;3.10;;;;;;;9.61;54.81;101930.56;842573;23;1182;-79
2023/05/30 00:03:17;;;;;;;10.13;3.10;;;;;;;9.66;54.86;101936.00;839764;23;1425;-79
2023/05/30 00:03:38;;;;;;;9.13;3.03;;;;;;;9.67;54.56;101941.31;840921;23;1194;-78
2023/05/30 00:04:00;;;;;;;7.88;3.15;;;;;;;9.60;54.80;101927.03;845132;23;898;-79
2023/05/30 00:04:21;;;;;;;6.10;3.00;;;;;;;9.67;54.85;101935.19;843814;23;1238;-78
2023/05/30 00:04:42;;;;;;;8.05;3.08;;;;;;;9.63;54.95;101933.25;849108;23;964;-78
2023/05/30 00:05:03;;;;;;;9.13;2.70;;;;;;;9.58;55.30;101931.28;849224;23;1102;-79
2023/05/30 00:05:24;;;;;;;9.68;2.90;;;;;;;9.60;54.95;101931.38;843910;23;1403;-79
2023/05/30 00:05:45;;;;;;;7.35;2.70;;;;;;;9.57;55.01;101929.50;842556;23;1122;-78
2023/05/30 00:06:06;;;;;;;7.67;2.63;;;;;;;9.56;54.88;101924.19;841156;23;1103;-79
2023/05/30 00:06:27;;;;;;;8.25;2.55;;;;;;;9.51;55.04;101934.41;838912;23;1436;-79
2023/05/30 00:06:48;;;;;;;8.20;2.55;;;;;;;9.40;55.32;101930.34;844188;23;1080;-78
2023/05/30 00:07:10;;;;;;;9.05;2.90;;;;;;;9.35;55.26;101919.72;841225;23;1105;-78
2023/05/30 00:07:31;;;;;;;11.48;3.40;;;;;;;9.48;54.99;101936.84;842948;23;1342;-80
2023/05/30 00:07:51;;;;;;;10.23;3.60;;;;;;;9.41;55.03;101927.81;840802;23;1104;-79
2023/05/30 00:08:12;;;;;;;10.10;3.85;;;;;;;9.43;55.34;101935.72;849267;23;1081;-78
2023/05/30 00:08:33;;;;;;;8.57;3.60;;;;;;;9.43;55.01;101930.50;843764;23;1107;-80
2023/05/30 00:08:54;;;;;;;10.70;3.40;;;;;;;9.41;55.11;101927.81;843492;23;1167;-79
2023/05/30 00:09:16;;;;;;;9.73;3.00;;;;;;;9.42;55.39;101926.13;839220;23;1267;-79
2023/05/30 00:09:36;;;;;;;9.57;3.35;;;;;;;9.39;55.55;101923.38;844987;23;1075;-79
2023/05/30 00:09:57;;;;;;;9.30;3.40;;;;;;;9.45;55.39;101934.97;835755;23;1311;-78
2023/05/30 00:10:18;;;;;;;9.35;3.30;;;;;;;9.37;55.49;101924.97;843712;23;1210;-79
2023/05/30 00:10:44;;;;;;;8.77;2.85;;;;;;;9.36;55.74;101925.78;845074;23;980;-79
2023/05/30 00:11:05;;;;;;;7.30;2.90;;;;;;;9.45;55.59;101949.72;839644;23;1963;-79
2023/05/30 00:11:28;;;;;;;8.50;3.13;;;;;;;9.40;55.40;101933.84;841257;23;811;-79
2023/05/30 00:11:49;;;;;;;11.57;3.10;;;;;;;9.40;55.97;101930.34;844814;23;999;-80
2023/05/30 00:12:11;;;;;;;10.43;3.10;;;;;;;9.38;55.79;101930.28;843781;23;1196;-80
2023/05/30 00:12:31;;;;;;;8.18;2.80;;;;;;;9.34;55.42;101930.03;839694;23;1417;-80
2023/05/30 00:12:52;;;;;;;7.50;3.00;;;;;;;9.35;55.77;101927.53;840730;23;1902;-80
2023/05/30 00:13:13;;;;;;;8.25;3.20;;;;;;;9.43;55.26;101941.84;841467;23;973;-80
2023/05/30 00:13:34;;;;;;;8.27;3.27;;;;;;;9.35;55.77;101930.13;841339;23;1021;-80
2023/05/30 00:13:55;;;;;;;7.97;3.20;;;;;;;9.29;55.59;101930.69;840961;23;1128;-80
2023/05/30 00:14:20;;;;;;;6.97;3.00;;;;;;;9.31;55.35;101930.78;837396;23;1080;-80
2023/05/30 00:14:41;;;;;;;7.70;2.97;;;;;;;9.30;55.78;101942.91;843599;23;1351;-80
2023/05/30 00:15:03;;;;;;;8.68;3.17;;;;;;;9.37;55.89;101941.50;843792;23;1208;-80
2023/05/30 00:15:25;;;;;;;11.18;3.35;;;;;;;9.34;55.68;101940.47;845302;23;854;-80
2023/05/30 00:15:47;;;;;;;10.75;3.40;;;;;;;9.31;56.20;101934.28;845036;23;1043;-80
2023/05/30 00:16:09;;;;;;;11.02;3.25;;;;;;;9.26;55.64;101930.53;839773;23;1124;-81
2023/05/30 00:16:31;;;;;;;10.07;3.47;;;;;;;9.28;56.12;101934.09;845316;23;707;-81
2023/05/30 00:16:52;;;;;;;10.38;3.38;;;;;;;9.36;55.93;101944.03;842013;23;1196;-80
2023/05/30 00:17:16;;;;;;;10.10;3.35;;;;;;;9.30;56.11;101942.91;837158;23;969;-80
2023/05/30 00:17:38;;;;;;;11.32;3.28;;;;;;;9.31;56.01;101936.88;841029;23;1072;-79
2023/05/30 00:18:00;;;;;;;9.75;3.35;;;;;;;9.30;56.08;101945.53;840884;23;925;-80
2023/05/30 00:18:22;;;;;;;9.57;3.30;;;;;;;9.37;56.52;101951.94;839550;23;1403;-80
2023/05/30 00:18:43;;;;;;;9.50;3.40;;;;;;;9.25;56.59;101939.16;836833;23;1033;-80
2023/05/30 00:19:04;;;;;;;10.32;3.58;;;;;;;9.22;56.39;101936.38;839476;23;1320;-80
2023/05/30 00:19:25;;;;;;;9.55;3.55;;;;;;;9.30;56.66;101942.00;843669;23;1092;-80
2023/05/30 00:19:46;;;;;;;8.77;3.40;;;;;;;9.25;56.54;101931.34;844728;23;1092;-80
2023/05/30 00:20:08;;;;;;;10.83;3.20;;;;;;;9.21;56.38;101929.38;843691;23;1200;-80
2023/05/30 00:20:30;;;;;;;13.20;3.40;;;;;;;9.26;56.75;101934.84;841107;23;776;-80
2023/05/30 00:20:51;;;;;;;11.68;3.25;;;;;;;9.22;56.61;101936.38;843368;23;1097;-81
2023/05/30 00:21:14;;;;;;;8.15;3.00;;;;;;;9.27;56.30;101942.75;849356;23;1090;-79
2023/05/30 00:21:35;;;;;;;8.15;2.85;;;;;;;9.27;56.42;101940.13;843670;23;1328;-80
2023/05/30 00:21:56;;;;;;;7.53;2.95;;;;;;;9.28;56.05;101941.91;841122;23;973;-80
2023/05/30 00:22:19;;;;;;;6.80;2.97;;;;;;;9.25;56.40;101933.97;839806;23;1291;-80
2023/05/30 00:22:43;;;;;;;5.85;2.80;;;;;;;9.24;56.59;101933.88;845309;23;1020;-80
2023/05/30 00:23:03;;;;;;;8.00;2.70;;;;;;;9.19;56.55;101941.44;844025;23;1148;-80
2023/05/30 00:23:35;;;;;;;8.33;2.60;;;;;;;9.26;56.65;101953.06;844174;23;1265;-80
2023/05/30 00:23:56;;;;;;;8.00;2.78;;;;;;;9.21;56.70;101950.22;844030;23;1261;-80
2023/05/30 00:24:17;;;;;;;9.02;3.17;;;;;;;9.16;56.52;101930.88;844047;23;1190;-80
2023/05/30 00:24:37;;;;;;;10.60;3.30;;;;;;;9.21;56.42;101945.00;844098;23;1130;-80
2023/05/30 00:24:59;;;;;;;9.80;3.15;;;;;;;9.18;56.81;101929.25;849430;23;1005;-80
2023/05/30 00:25:20;;;;;;;8.50;2.97;;;;;;;9.22;56.75;101941.59;845436;23;1001;-80
2023/05/30 00:25:42;;;;;;;7.55;3.13;;;;;;;9.25;56.66;101948.69;845105;23;972;-81
2023/05/30 00:26:04;;;;;;;8.80;3.08;;;;;;;9.24;56.58;101944.28;845308;23;1048;-80
2023/05/30 00:26:26;;;;;;;10.15;3.22;;;;;;;9.15;56.93;101929.09;842829;23;688;-79
2023/05/30 00:26:48;;;;;;;10.73;3.08;;;;;;;9.11;57.12;101932.34;835030;23;2076;-80
2023/05/30 00:27:08;;;;;;;10.80;3.40;;;;;;;9.13;57.09;101933.31;845426;23;1101;-80
2023/05/30 00:27:34;;;;;;;9.02;3.10;;;;;;;9.13;57.08;101931.59;843248;23;1174;-79
2023/05/30 00:27:59;;;;;;;6.22;3.17;;;;;;;9.28;57.19;101956.66;843809;23;1206;-80
2023/05/30 00:28:20;;;;;;;6.17;3.00;;;;;;;9.16;57.08;101936.97;834799;23;1386;-80
2023/05/30 00:28:40;;;;;;;6.70;2.70;;;;;;;9.16;57.09;101942.16;843264;23;1282;-80
2023/05/30 00:29:01;;;;;;;8.25;2.70;;;;;;;9.12;57.01;101932.41;838359;23;1141;-80
2023/05/30 00:29:23;;;;;;;10.88;2.90;;;;;;;9.10;57.42;101943.56;841543;23;735;-80
2023/05/30 00:29:45;;;;;;;11.45;2.97;;;;;;;9.02;57.30;101936.25;839180;23;1122;-80
2023/05/30 00:30:06;;;;;;;12.25;3.65;;;;;;;9.10;57.85;101957.47;845409;23;1000;-80
2023/05/30 00:30:27;;;;;;;11.35;3.83;;;;;;;9.03;57.52;101953.66;845695;23;740;-80
2023/05/30 00:30:47;;;;;;;9.48;3.58;;;;;;;8.99;57.70;101943.91;847821;23;1200;-80
2023/05/30 00:31:08;;;;;;;7.60;3.20;;;;;;;9.02;57.71;101933.63;849675;23;1040;-79
2023/05/30 00:31:31;;;;;;;7.97;2.93;;;;;;;9.07;57.19;101940.81;840152;23;1167;-80
2023/05/30 00:31:54;;;;;;;8.77;2.85;;;;;;;9.04;57.28;101933.72;839651;23;1994;-80
2023/05/30 00:32:15;;;;;;;10.95;3.22;;;;;;;9.14;57.36;101953.31;840113;23;1170;-80
2023/05/30 00:32:36;;;;;;;10.77;3.40;;;;;;;9.08;57.64;101942.59;835863;23;1933;-80
2023/05/30 00:32:56;;;;;;;9.27;3.40;;;;;;;8.99;57.83;101943.00;837395;23;1096;-80
2023/05/30 00:33:20;;;;;;;9.43;3.00;;;;;;;9.08;57.83;101964.31;841498;23;1091;-80
2023/05/30 00:33:42;;;;;;;9.63;3.10;;;;;;;8.98;57.61;101936.88;838932;23;1212;-80
2023/05/30 00:34:03;;;;;;;9.43;3.30;;;;;;;9.04;57.62;101945.03;839872;23;1044;-80
2023/05/30 00:34:23;;;;;;;8.20;3.60;;;;;;;9.01;57.47;101947.47;841483;23;752;-80
2023/05/30 00:34:44;;;;;;;8.38;3.53;;;;;;;9.03;57.76;101943.22;841127;23;1108;-80
2023/05/30 00:35:06;;;;;;;6.53;3.17;;;;;;;9.02;57.83;101944.06;837381;23;1112;-80
2023/05/30 00:35:27;;;;;;;5.80;2.97;;;;;;;9.13;57.67;101961.94;835653;23;1297;-81
2023/05/30 00:35:48;;;;;;;5.78;2.92;;;;;;;9.13;57.67;101964.56;838968;23;1181;-80
2023/05/30 00:36:09;;;;;;;7.97;3.10;;;;;;;9.02;58.10;101954.47;844088;23;1257;-80
2023/05/30 00:36:31;;;;;;;9.50;3.28;;;;;;;8.98;57.98;101952.50;839530;23;1136;-80
2023/05/30 00:36:52;;;;;;;9.60;3.15;;;;;;;8.98;58.06;101951.63;838979;23;1254;-80
2023/05/30 00:37:12;;;;;;;8.13;3.20;;;;;;;9.05;57.77;101962.44;840424;23;1203;-80
2023/05/30 00:37:33;;;;;;;8.60;3.17;;;;;;;8.99;57.59;101946.50;844110;23;1107;-80
2023/05/30 00:37:54;;;;;;;8.50;3.10;;;;;;;8.97;57.72;101945.50;841176;23;1023;-80
2023/05/30 00:38:15;;;;;;;8.82;3.10;;;;;;;9.07;57.89;101970.34;844071;23;1290;-80
2023/05/30 00:38:35;;;;;;;10.50;3.10;;;;;;;9.00;58.13;101948.28;843723;23;1208;-80
2023/05/30 00:38:56;;;;;;;10.65;3.40;;;;;;;8.96;58.27;101956.75;839987;23;1083;-80
2023/05/30 00:39:17;;;;;;;10.50;3.20;;;;;;;9.00;57.85;101955.19;841445;23;1015;-80
2023/05/30 00:39:38;;;;;;;8.35;3.13;;;;;;;9.03;58.07;101963.19;837319;23;1028;-80
2023/05/30 00:39:59;;;;;;;7.55;3.00;;;;;;;8.98;58.08;101955.09;839944;23;1118;-80
2023/05/30 00:40:20;;;;;;;6.75;3.38;;;;;;;8.97;58.20;101944.63;845533;23;964;-79
2023/05/30 00:40:41;;;;;;;9.00;3.78;;;;;;;8.97;58.15;101947.22;847816;23;1224;-81
2023/05/30 00:41:08;;;;;;;11.07;4.10;;;;;;;8.98;58.04;101951.63;845478;23;802;-80
2023/05/30 00:41:29;;;;;;;13.25;4.10;;;;;;;8.97;58.01;101950.72;840200;23;1403;-80
2023/05/30 00:41:51;;;;;;;11.77;3.90;;;;;;;9.00;58.46;101957.78;839801;23;1134;-80
2023/05/30 00:42:12;;;;;;;10.10;3.63;;;;;;;8.99;58.26;101953.41;837379;23;986;-80
2023/05/30 00:42:32;;;;;;;8.05;3.53;;;;;;;8.94;58.42;101965.28;837566;23;657;-80
2023/05/30 00:42:53;;;;;;;9.33;3.70;;;;;;;8.92;58.37;101962.59;841053;23;1016;-81
2023/05/30 00:43:15;;;;;;;12.68;3.85;;;;;;;8.83;58.38;101956.91;841362;23;1029;-81
2023/05/30 00:43:37;;;;;;;15.10;4.30;;;;;;;8.76;58.59;101976.47;845309;23;1078;-80
2023/05/30 00:43:58;;;;;;;13.25;4.30;;;;;;;8.65;58.88;101962.00;846542;23;1329;-80
2023/05/30 00:44:18;;;;;;;9.60;3.97;;;;;;;8.65;59.13;101949.84;843901;23;1088;-80
2023/05/30 00:44:39;;;;;;;10.02;3.75;;;;;;;8.66;59.12;101959.47;841212;23;1099;-79
2023/05/30 00:45:00;;;;;;;11.82;4.65;;;;;;;8.77;59.29;101975.66;837297;23;768;-80
2023/05/30 00:45:21;;;;;;;14.23;5.30;;;;;;;8.65;59.34;101962.00;836052;23;1382;-80
2023/05/30 00:45:42;;;;;;;12.27;5.20;;;;;;;8.60;59.53;101964.31;835696;23;1235;-80
2023/05/30 00:46:04;;;;;;;13.40;5.47;;;;;;;8.47;59.69;101953.22;835895;23;1433;-81
2023/05/30 00:46:29;;;;;;;13.27;5.60;;;;;;;8.51;59.78;101949.06;838973;23;1349;-80
2023/05/30 00:46:51;;;;;;;13.95;5.28;;;;;;;8.56;60.10;101962.34;840394;23;986;-81
2023/05/30 00:47:13;;;;;;;13.65;4.75;;;;;;;8.63;59.71;101968.03;839875;23;1251;-81
2023/05/30 00:47:35;;;;;;;12.38;4.50;;;;;;;8.52;60.44;101955.19;841569;23;1119;-80
2023/05/30 00:47:56;;;;;;;9.25;4.47;;;;;;;8.54;60.43;101975.25;839797;23;1176;-81
2023/05/30 00:48:17;;;;;;;9.77;4.30;;;;;;;8.49;60.17;101959.38;839955;23;1166;-80
2023/05/30 00:48:39;;;;;;;10.10;4.00;;;;;;;8.44;60.35;101958.25;841451;23;1087;-80
2023/05/30 00:49:00;;;;;;;11.88;4.00;;;;;;;8.45;60.77;101959.13;845304;23;819;-81
2023/05/30 00:49:21;;;;;;;13.38;3.90;;;;;;;8.41;60.79;101958.06;843897;23;1086;-81
2023/05/30 00:49:42;;;;;;;13.77;3.92;;;;;;;8.42;60.69;101959.84;839875;23;1341;-80
2023/05/30 00:50:05;;;;;;;12.73;4.18;;;;;;;8.44;60.68;101960.84;835491;23;1170;-80
2023/05/30 00:50:28;;;;;;;10.57;3.83;;;;;;;8.52;60.67;101973.41;836150;23;1211;-80
2023/05/30 00:50:50;;;;;;;9.48;3.63;;;;;;;8.44;60.79;101963.47;835585;23;1171;-80
2023/05/30 00:51:12;;;;;;;11.50;3.47;;;;;;;8.40;61.07;101951.06;839090;23;1339;-81
2023/05/30 00:51:33;;;;;;;11.10;3.40;;;;;;;8.47;60.87;101962.72;843980;23;1157;-80
2023/05/30 00:51:55;;;;;;;11.05;3.75;;;;;;;8.46;60.85;101961.81;843738;23;1282;-80
2023/05/30 00:52:17;;;;;;;10.63;3.90;;;;;;;8.52;61.05;101956.06;839090;23;1842;-80
2023/05/30 00:52:40;;;;;;;10.35;3.50;;;;;;;8.59;60.45;101959.88;843730;23;1917;-80
2023/05/30 00:53:01;;;;;;;11.50;3.70;;;;;;;8.67;60.82;101976.88;845381;23;810;-80
2023/05/30 00:53:23;;;;;;;11.23;3.90;;;;;;;8.57;60.51;101954.63;843175;23;1325;-80
2023/05/30 00:53:44;;;;;;;11.13;3.85;;;;;;;8.62;60.71;101967.91;849141;23;955;-80
2023/05/30 00:54:05;;;;;;;11.17;3.50;;;;;;;8.66;60.53;101975.06;847923;23;1058;-80
2023/05/30 00:54:26;;;;;;;11.52;3.80;;;;;;;8.59;60.58;101966.00;845354;23;840;-80
2023/05/30 00:54:47;;;;;;;11.90;3.97;;;;;;;8.57;60.24;101964.13;841050;23;984;-80
2023/05/30 00:55:08;;;;;;;11.82;4.10;;;;;;;8.60;60.62;101972.13;839382;23;1343;-80
2023/05/30 00:55:30;;;;;;;11.40;3.80;;;;;;;8.58;60.69;101968.50;843033;23;917;-80
2023/05/30 00:55:50;;;;;;;9.80;3.50;;;;;;;8.50;61.04;101961.16;843595;23;1234;-80
2023/05/30 00:56:12;;;;;;;9.98;3.40;;;;;;;8.60;60.91;101977.31;842627;23;1123;-80
2023/05/30 00:56:32;;;;;;;11.23;3.58;;;;;;;8.59;61.03;101976.41;836129;23;1260;-79
2023/05/30 00:56:53;;;;;;;9.55;3.60;;;;;;;8.54;60.75;101966.56;839146;23;1148;-80
2023/05/30 00:57:15;;;;;;;10.45;4.05;;;;;;;8.48;61.30;101957.59;841513;23;968;-80
2023/05/30 00:57:36;;;;;;;11.00;4.05;;;;;;;8.57;61.05;101969.31;838089;23;1181;-80
2023/05/30 00:57:57;;;;;;;13.55;3.85;;;;;;;8.52;61.62;101965.59;835929;23;1130;-80
2023/05/30 00:58:18;;;;;;;12.70;3.60;;;;;;;8.60;61.20;101982.53;837532;23;978;-80
2023/05/30 00:58:39;;;;;;;11.55;3.33;;;;;;;8.55;61.15;101976.16;839413;23;1220;-80
2023/05/30 00:59:01;;;;;;;9.35;3.33;;;;;;;8.59;60.85;101978.09;839762;23;1328;-80
2023/05/30 00:59:22;;;;;;;10.73;3.70;;;;;;;8.56;61.18;101980.56;840087;23;1158;-80
2023/05/30 00:59:43;;;;;;;10.90;4.00;;;;;;;8.54;61.28;101974.38;839637;23;1349;-80
2023/05/30 01:00:05;;;;;;;10.20;3.78;;;;;;;8.47;61.68;101966.22;839778;23;1345;-80
2023/05/30 01:00:27;;;;;;;10.32;3.50;;;;;;;8.51;61.63;101967.28;847669;23;1305;-80
2023/05/30 01:00:48;;;;;;;12.65;3.63;;;;;;;8.48;61.42;101969.72;843400;23;1189;-80
2023/05/30 01:01:09;;;;;;;11.25;3.65;;;;;;;8.58;61.60;101981.53;842946;23;1036;-80
2023/05/30 01:01:32;;;;;;;12.80;4.07;;;;;;;8.42;61.67;101953.78;845528;23;821;-80
2023/05/30 01:01:53;;;;;;;21.83;7.00;;;;;;;8.45;61.42;101966.94;845018;23;1067;-80
2023/05/30 01:02:16;;;;;;;58.38;17.30;;;;;;;8.54;61.73;101977.84;843570;23;1345;-80
2023/05/30 01:02:39;;;;;;;91.80;26.70;;;;;;;8.54;61.58;101985.66;839670;23;1203;-80
2023/05/30 01:03:00;;;;;;;98.82;28.52;;;;;;;8.55;61.76;101981.38;841214;23;953;-80
2023/05/30 01:03:24;;;;;;;72.78;21.45;;;;;;;8.46;62.12;101964.44;837353;23;1041;-80
2023/05/30 01:03:49;;;;;;;45.63;14.25;;;;;;;8.46;62.20;101967.03;835607;23;1344;-79
2023/05/30 01:04:10;;;;;;;47.63;14.02;;;;;;;8.43;62.11;101965.97;835991;23;1232;-80
2023/05/30 01:04:32;;;;;;;47.70;13.40;;;;;;;8.47;62.33;101963.63;843602;23;1287;-80
2023/05/30 01:04:53;;;;;;;50.42;14.98;;;;;;;8.39;62.51;101957.09;849215;23;1144;-80
2023/05/30 01:05:14;;;;;;;46.17;14.80;;;;;;;8.47;62.45;101968.81;849626;23;975;-80
2023/05/30 01:05:35;;;;;;;46.75;15.30;;;;;;;8.49;62.23;101977.59;848026;23;1170;-79
2023/05/30 01:05:56;;;;;;;44.92;14.20;;;;;;;8.43;62.57;101971.16;845432;23;913;-80
2023/05/30 01:06:20;;;;;;;43.13;13.65;;;;;;;8.49;62.70;101979.31;840037;23;1181;-80
2023/05/30 01:06:41;;;;;;;44.65;13.30;;;;;;;8.42;62.72;101971.97;847696;23;1246;-80
2023/05/30 01:07:02;;;;;;;41.05;12.10;;;;;;;8.36;62.60;101964.75;850043;23;1323;-80
2023/05/30 01:07:23;;;;;;;35.47;10.40;;;;;;;8.39;63.08;101969.19;845512;23;782;-80
2023/05/30 01:07:45;;;;;;;31.13;9.35;;;;;;;8.37;62.71;101961.31;842680;23;1211;-80
2023/05/30 01:08:07;;;;;;;30.33;9.70;;;;;;;8.38;62.71;101970.91;843908;23;1123;-80
2023/05/30 01:08:28;;;;;;;25.67;8.80;;;;;;;8.42;63.36;101975.47;841579;23;846;-79
2023/05/30 01:08:51;;;;;;;26.65;8.23;;;;;;;8.38;62.47;101963.09;845036;23;1067;-80
2023/05/30 01:09:13;;;;;;;27.70;7.85;;;;;;;8.38;63.04;101967.41;841314;23;1020;-80
2023/05/30 01:09:33;;;;;;;30.15;9.20;;;;;;;8.34;62.87;101963.72;839790;23;1355;-79
2023/05/30 01:09:54;;;;;;;27.58;9.40;;;;;;;8.41;63.10;101972.78;839661;23;1065;-80
2023/05/30 01:10:16;;;;;;;28.42;9.48;;;;;;;8.45;62.85;101979.94;839535;23;1381;-79
2023/05/30 01:10:37;;;;;;;34.83;9.85;;;;;;;8.29;63.01;101958.28;839732;23;1268;-79
2023/05/30 01:11:51;;;;;;;45.63;11.25;;;;;;;8.43;63.14;101977.28;838551;23;1236;-79
2023/05/30 01:12:22;;;;;;;36.13;10.48;;;;;;;8.43;63.60;101979.88;816194;24;1917;-79
2023/05/30 01:13:11;;;;;;;33.88;10.48;;;;;;;8.43;63.37;101979.88;826439;23;1899;-79
2023/05/30 01:14:00;;;;;;;26.63;8.65;;;;;;;8.36;63.55;101972.53;847936;23;850;-79
2023/05/30 01:14:39;;;;;;;42.55;13.35;;;;;;;8.38;63.78;101973.50;849437;23;1091;-79
2023/05/30 01:15:03;;;;;;;45.80;14.10;;;;;;;8.40;63.87;101977.09;845350;23;1162;-79
2023/05/30 01:15:52;;;;;;;40.42;12.65;;;;;;;8.31;63.99;101964.47;849571;23;877;-79
2023/05/30 01:16:17;;;;;;;28.27;9.75;;;;;;;8.38;63.94;101978.72;838619;23;1161;-79
2023/05/30 01:16:46;;;;;;;34.30;10.05;;;;;;;8.30;64.00;101966.97;839721;23;1052;-79
2023/05/30 01:17:18;;;;;;;55.63;12.85;;;;;;;8.36;64.40;101975.13;845916;23;1077;-79
2023/05/30 01:18:03;;;;;;;47.63;11.93;;;;;;;8.38;64.45;101970.91;843666;23;1166;-79
2023/05/30 01:18:37;;;;;;;18.90;6.10;;;;;;;8.30;64.50;101969.59;836819;23;1085;-79
2023/05/30 01:19:09;;;;;;;14.80;4.85;;;;;;;8.38;63.96;101981.31;842322;23;944;-79
2023/05/30 01:19:46;;;;;;;16.42;4.97;;;;;;;8.38;64.09;101983.00;845676;23;1108;-80
2023/05/30 01:20:12;;;;;;;16.23;5.15;;;;;;;8.26;64.78;101962.41;852067;23;1362;-80
2023/05/30 01:20:40;;;;;;;14.32;5.00;;;;;;;8.29;64.66;101967.78;839869;23;1957;-81
2023/05/30 01:21:10;;;;;;;13.85;4.80;;;;;;;8.28;64.29;101982.50;835908;23;855;-79
2023/05/30 01:21:36;;;;;;;14.07;4.40;;;;;;;8.21;64.60;101965.66;836030;23;1265;-79
2023/05/30 01:22:29;;;;;;;12.32;4.15;;;;;;;8.23;65.03;101973.53;841166;23;858;-79
2023/05/30 01:22:50;;;;;;;13.27;4.70;;;;;;;8.27;64.71;101992.78;827356;23;1901;-79
2023/05/30 01:23:13;;;;;;;11.70;4.45;;;;;;;8.25;64.72;101982.31;828078;23;1438;-79
2023/05/30 01:23:41;;;;;;;10.63;4.43;;;;;;;8.23;64.68;101984.84;831898;23;1156;-80
2023/05/30 01:24:19;;;;;;;9.57;3.80;;;;;;;8.21;64.98;101991.66;841248;23;1131;-79
2023/05/30 01:24:45;;;;;;;11.38;3.75;;;;;;;8.04;65.23;101969.00;837307;23;1033;-79
2023/05/30 01:25:29;;;;;;;10.13;3.70;;;;;;;7.97;65.29;101969.44;845363;23;1178;-79
2023/05/30 01:26:12;;;;;;;9.70;3.58;;;;;;;8.02;65.20;101986.19;843541;23;1178;-79
2023/05/30 01:27:15;;;;;;;9.27;4.03;;;;;;;8.04;65.35;101989.81;843889;23;1255;-79
2023/05/30 01:28:13;;;;;;;14.60;4.15;;;;;;;8.08;65.62;101989.16;844153;23;1351;-79
2023/05/30 01:28:36;;;;;;;15.50;4.60;;;;;;;8.05;65.72;101987.25;853200;23;1099;-81
2023/05/30 01:29:02;;;;;;;17.20;5.15;;;;;;;8.08;65.76;101992.66;849241;23;928;-81
2023/05/30 01:29:24;;;;;;;20.35;5.88;;;;;;;7.97;66.01;101967.72;846737;23;735;-79
2023/05/30 01:29:47;;;;;;;18.85;5.70;;;;;;;8.02;65.51;101973.19;843509;23;1348;-79
2023/05/30 01:30:09;;;;;;;17.27;5.07;;;;;;;8.05;66.22;101983.78;843829;23;1079;-79
2023/05/30 01:30:30;;;;;;;14.15;5.13;;;;;;;8.07;66.02;101988.28;835971;23;1316;-80
2023/05/30 01:30:56;;;;;;;15.38;5.40;;;;;;;7.95;66.20;101959.88;835689;23;1100;-79
2023/05/30 01:31:18;;;;;;;13.60;5.07;;;;;;;8.04;65.89;101977.69;844176;23;1356;-79
2023/05/30 01:31:39;;;;;;;12.82;4.80;;;;;;;8.00;66.16;101975.72;841285;23;1056;-81
2023/05/30 01:32:03;;;;;;;12.45;4.53;;;;;;;7.98;65.77;101971.22;841324;23;1002;-81
2023/05/30 01:32:25;;;;;;;15.23;4.43;;;;;;;8.05;66.02;101973.38;839949;23;1321;-81
2023/05/30 01:32:46;;;;;;;15.77;4.40;;;;;;;8.08;65.86;101983.94;835562;23;1260;-81
2023/05/30 01:33:07;;;;;;;16.45;4.47;;;;;;;8.04;66.22;101977.69;837304;23;1167;-82
2023/05/30 01:33:29;;;;;;;16.08;4.40;;;;;;;8.05;66.10;101976.00;839666;23;1269;-81
2023/05/30 01:33:51;;;;;;;15.32;4.28;;;;;;;8.14;66.04;101983.41;840898;23;1003;-81
2023/05/30 01:34:15;;;;;;;15.07;4.10;;;;;;;8.09;66.22;101973.66;845210;23;1198;-81
2023/05/30 01:34:39;;;;;;;12.90;3.92;;;;;;;8.14;66.42;101976.50;840926;23;1134;-81
2023/05/30 01:35:00;;;;;;;13.75;4.20;;;;;;;8.12;66.18;101966.81;839330;23;1086;-81
2023/05/30 01:35:24;;;;;;;15.73;4.40;;;;;;;8.14;66.15;101967.81;839921;23;1501;-81
2023/05/30 01:35:46;;;;;;;19.40;4.72;;;;;;;8.26;66.41;101986.72;840847;23;1108;-81
2023/05/30 01:36:07;;;;;;;15.88;4.75;;;;;;;8.20;65.97;101963.88;835846;23;1149;-80
2023/05/30 01:36:30;;;;;;;12.27;4.47;;;;;;;8.31;66.37;101985.28;837320;23;815;-79
2023/05/30 01:36:51;;;;;;;12.38;4.38;;;;;;;8.22;66.35;101957.03;838760;23;1196;-80
2023/05/30 01:37:12;;;;;;;12.75;4.30;;;;;;;8.27;66.19;101965.09;843876;23;1051;-79
2023/05/30 01:37:32;;;;;;;14.35;4.80;;;;;;;8.32;65.92;101974.06;840053;23;1269;-79
2023/05/30 01:37:53;;;;;;;13.83;4.53;;;;;;;8.32;66.18;101967.97;840940;23;1166;-79
2023/05/30 01:38:15;;;;;;;13.95;4.40;;;;;;;8.41;66.02;101978.88;837425;23;1186;-79
2023/05/30 01:38:37;;;;;;;12.90;4.13;;;;;;;8.34;65.83;101966.31;837153;23;1149;-79
2023/05/30 01:38:58;;;;;;;13.10;4.10;;;;;;;8.43;66.05;101977.28;837205;23;974;-80
2023/05/30 01:39:18;;;;;;;12.00;4.07;;;;;;;8.36;65.78;101965.59;839778;23;1285;-79
2023/05/30 01:39:39;;;;;;;10.60;3.90;;;;;;;8.40;65.91;101971.88;843532;23;1193;-80
2023/05/30 01:40:00;;;;;;;10.77;3.90;;;;;;;8.37;65.84;101961.31;839511;23;1355;-81
2023/05/30 01:40:24;;;;;;;9.00;3.80;;;;;;;8.42;65.84;101975.47;845438;23;1192;-81
2023/05/30 01:40:57;;;;;;;8.48;3.50;;;;;;;8.39;65.92;101959.69;845209;23;988;-81
2023/05/30 01:41:26;;;;;;;12.35;3.90;;;;;;;8.45;66.07;101969.53;845421;23;1147;-81
2023/05/30 01:42:16;;;;;;;15.60;4.50;;;;;;;8.35;65.56;101962.91;846656;23;1350;-82
2023/05/30 01:42:39;;;;;;;12.07;3.90;;;;;;;8.40;65.95;101971.88;839231;23;1943;-81
2023/05/30 01:43:29;;;;;;;10.25;3.58;;;;;;;8.42;65.78;101975.47;841342;23;1055;-82
2023/05/30 01:44:01;;;;;;;11.55;4.55;;;;;;;8.27;65.91;101953.78;838742;23;1232;-81
2023/05/30 01:44:54;;;;;;;13.40;4.20;;;;;;;8.33;65.84;101969.75;831725;23;1460;-81
2023/05/30 01:45:20;;;;;;;9.55;3.92;;;;;;;8.31;66.04;101966.16;839754;23;1156;-81
2023/05/30 01:45:53;;;;;;;10.90;4.28;;;;;;;8.36;66.23;101982.94;839622;23;1431;-81
2023/05/30 01:46:35;;;;;;;12.40;4.20;;;;;;;8.35;66.22;101981.13;841240;23;1022;-81
2023/05/30 01:47:11;;;;;;;9.73;3.60;;;;;;;8.32;65.89;101986.16;835056;23;2124;-81
2023/05/30 01:47:40;;;;;;;10.30;3.70;;;;;;;8.25;66.06;101976.22;835865;23;887;-81
2023/05/30 01:48:15;;;;;;;13.13;4.50;;;;;;;8.18;66.62;101983.66;839810;23;1083;-81
2023/05/30 01:48:53;;;;;;;16.30;5.03;;;;;;;8.29;66.88;101991.22;839747;23;1158;-81
2023/05/30 01:49:29;;;;;;;28.48;7.68;;;;;;;8.29;66.75;101980.81;845573;23;959;-81
2023/05/30 01:50:17;;;;;;;41.40;11.25;;;;;;;8.25;66.26;101977.13;844808;23;1313;-81
2023/05/30 01:50:45;;;;;;;51.95;13.25;;;;;;;8.31;66.55;101985.28;841962;23;1272;-81
2023/05/30 01:51:12;;;;;;;50.15;12.90;;;;;;;8.34;66.42;101988.06;845381;23;1027;-81
2023/05/30 01:51:58;;;;;;;49.75;12.65;;;;;;;8.34;66.33;101980.25;845449;23;767;-81
2023/05/30 01:52:21;;;;;;;46.95;12.30;;;;;;;8.31;66.48;101976.56;843918;23;1196;-81
2023/05/30 01:52:49;;;;;;;38.17;10.45;;;;;;;8.46;66.42;101989.53;843599;23;1072;-81
2023/05/30 01:53:17;;;;;;;32.67;9.20;;;;;;;8.49;66.62;101987.13;839925;23;1187;-81
2023/05/30 01:53:46;;;;;;;28.27;7.78;;;;;;;8.42;66.22;101975.47;845071;23;1060;-81
2023/05/30 01:54:10;;;;;;;30.15;7.75;;;;;;;8.56;66.56;101993.56;847833;23;1021;-81
2023/05/30 01:54:33;;;;;;;25.40;7.13;;;;;;;8.49;66.49;101982.81;845473;23;813;-81
2023/05/30 01:54:58;;;;;;;21.17;6.80;;;;;;;8.61;66.12;101992.13;840992;23;870;-81
2023/05/30 01:55:23;;;;;;;18.65;6.50;;;;;;;8.54;66.55;101979.56;851921;23;1451;-82
2023/05/30 01:55:45;;;;;;;18.65;6.25;;;;;;;8.56;66.12;101977.94;853272;23;975;-82
2023/05/30 01:56:08;;;;;;;16.33;5.57;;;;;;;8.58;66.24;101971.13;843789;23;1311;-81
2023/05/30 01:56:31;;;;;;;16.98;5.55;;;;;;;8.71;66.24;101998.75;839023;23;1117;-81